sensor_id;sensor_type;location;lat;lon;timestamp;P1;durP1;ratioP1;P2;durP2;ratioP2
5133;SDS011;2585;48.696;10.066;2023-02-15T00:01:41;44.67;;;17.60;;
5133;SDS011;2585;48.696;10.066;2023-02-15T00:04:09;29.38;;;17.00;;
5133;SDS011;2585;48.696;10.066;2023-02-15T00:06:39;44.95;;;16.92;;
5133;SDS011;2585;48.696;10.066;2023-02-15T00:09:06;66.40;;;18.23;;
5133;SDS011;2585;48.696;10.066;2023-02-15T00:11:33;61.38;;;16.85;;
5133;SDS011;2585;48.696;10.066;2023-02-15T00:16:42;110.28;;;19.73;;
5133;SDS011;2585;48.696;10.066;2023-02-15T00:19:10;116.32;;;19.63;;
5133;SDS011;2585;48.696;10.066;2023-02-15T00:21:40;101.70;;;17.58;;
5133;SDS011;2585;48.696;10.066;2023-02-15T00:24:08;76.60;;;17.60;;
5133;SDS011;2585;48.696;10.066;2023-02-15T00:26:37;41.95;;;17.02;;
5133;SDS011;2585;48.696;10.066;2023-02-15T00:29:05;36.30;;;18.42;;
5133;SDS011;2585;48.696;10.066;2023-02-15T00:31:33;35.65;;;16.85;;
5133;SDS011;2585;48.696;10.066;2023-02-15T00:34:01;39.70;;;16.40;;
5133;SDS011;2585;48.696;10.066;2023-02-15T00:36:32;41.30;;;16.80;;
5133;SDS011;2585;48.696;10.066;2023-02-15T00:38:59;67.60;;;18.90;;
5133;SDS011;2585;48.696;10.066;2023-02-15T00:41:25;55.25;;;17.40;;
5133;SDS011;2585;48.696;10.066;2023-02-15T00:43:52;64.88;;;16.40;;
5133;SDS011;2585;48.696;10.066;2023-02-15T00:46:19;94.43;;;16.98;;
5133;SDS011;2585;48.696;10.066;2023-02-15T00:48:46;47.78;;;16.27;;
5133;SDS011;2585;48.696;10.066;2023-02-15T00:51:13;64.72;;;18.25;;
5133;SDS011;2585;48.696;10.066;2023-02-15T00:53:40;97.18;;;19.90;;
5133;SDS011;2585;48.696;10.066;2023-02-15T00:56:06;140.77;;;19.33;;
5133;SDS011;2585;48.696;10.066;2023-02-15T00:58:33;84.63;;;15.70;;
5133;SDS011;2585;48.696;10.066;2023-02-15T01:01:07;29.65;;;15.20;;
5133;SDS011;2585;48.696;10.066;2023-02-15T01:03:36;34.97;;;17.55;;
5133;SDS011;2585;48.696;10.066;2023-02-15T01:06:04;65.55;;;16.55;;
5133;SDS011;2585;48.696;10.066;2023-02-15T01:08:31;88.88;;;20.58;;
5133;SDS011;2585;48.696;10.066;2023-02-15T01:11:02;139.52;;;18.35;;
5133;SDS011;2585;48.696;10.066;2023-02-15T01:13:31;59.40;;;16.08;;
5133;SDS011;2585;48.696;10.066;2023-02-15T01:15:58;42.38;;;17.48;;
5133;SDS011;2585;48.696;10.066;2023-02-15T01:18:25;82.00;;;18.92;;
5133;SDS011;2585;48.696;10.066;2023-02-15T01:20:52;74.10;;;18.08;;
5133;SDS011;2585;48.696;10.066;2023-02-15T01:23:19;49.70;;;15.63;;
5133;SDS011;2585;48.696;10.066;2023-02-15T01:25:46;36.58;;;16.27;;
5133;SDS011;2585;48.696;10.066;2023-02-15T01:28:13;60.50;;;16.88;;
5133;SDS011;2585;48.696;10.066;2023-02-15T01:30:40;56.20;;;16.85;;
5133;SDS011;2585;48.696;10.066;2023-02-15T01:33:07;50.65;;;17.23;;
5133;SDS011;2585;48.696;10.066;2023-02-15T01:35:37;59.25;;;17.35;;
5133;SDS011;2585;48.696;10.066;2023-02-15T01:38:04;30.90;;;16.67;;
5133;SDS011;2585;48.696;10.066;2023-02-15T01:40:31;30.75;;;15.13;;
5133;SDS011;2585;48.696;10.066;2023-02-15T01:42:57;53.28;;;16.00;;
5133;SDS011;2585;48.696;10.066;2023-02-15T01:45:28;32.63;;;16.17;;
5133;SDS011;2585;48.696;10.066;2023-02-15T01:50:54;42.38;;;17.70;;
5133;SDS011;2585;48.696;10.066;2023-02-15T01:53:27;66.30;;;17.45;;
5133;SDS011;2585;48.696;10.066;2023-02-15T01:56:16;27.98;;;15.73;;
5133;SDS011;2585;48.696;10.066;2023-02-15T01:58:46;35.40;;;17.15;;
5133;SDS011;2585;48.696;10.066;2023-02-15T02:01:13;51.72;;;17.80;;
5133;SDS011;2585;48.696;10.066;2023-02-15T02:06:31;48.63;;;16.10;;
5133;SDS011;2585;48.696;10.066;2023-02-15T02:08:59;44.35;;;17.40;;
5133;SDS011;2585;48.696;10.066;2023-02-15T02:11:26;130.48;;;18.65;;
5133;SDS011;2585;48.696;10.066;2023-02-15T02:13:53;133.35;;;20.55;;
5133;SDS011;2585;48.696;10.066;2023-02-15T02:27:33;107.18;;;19.33;;
5133;SDS011;2585;48.696;10.066;2023-02-15T02:35:32;34.45;;;15.00;;
5133;SDS011;2585;48.696;10.066;2023-02-15T02:38:11;57.33;;;16.60;;
5133;SDS011;2585;48.696;10.066;2023-02-15T02:41:10;57.78;;;16.70;;
5133;SDS011;2585;48.696;10.066;2023-02-15T02:43:47;55.70;;;20.13;;
5133;SDS011;2585;48.696;10.066;2023-02-15T02:46:20;79.78;;;17.60;;
5133;SDS011;2585;48.696;10.066;2023-02-15T02:48:52;94.78;;;19.70;;
5133;SDS011;2585;48.696;10.066;2023-02-15T02:51:19;233.13;;;23.20;;
5133;SDS011;2585;48.696;10.066;2023-02-15T02:53:52;50.22;;;18.85;;
5133;SDS011;2585;48.696;10.066;2023-02-15T02:56:30;58.05;;;19.27;;
5133;SDS011;2585;48.696;10.066;2023-02-15T02:59:09;65.18;;;16.25;;
5133;SDS011;2585;48.696;10.066;2023-02-15T03:01:56;29.65;;;16.33;;
5133;SDS011;2585;48.696;10.066;2023-02-15T03:04:52;59.38;;;17.42;;
5133;SDS011;2585;48.696;10.066;2023-02-15T03:07:24;33.50;;;15.95;;
5133;SDS011;2585;48.696;10.066;2023-02-15T03:09:55;115.55;;;20.92;;
5133;SDS011;2585;48.696;10.066;2023-02-15T03:12:26;74.43;;;19.17;;
5133;SDS011;2585;48.696;10.066;2023-02-15T03:15:00;34.75;;;17.90;;
5133;SDS011;2585;48.696;10.066;2023-02-15T03:17:31;58.28;;;18.70;;
5133;SDS011;2585;48.696;10.066;2023-02-15T03:20:04;56.92;;;17.73;;
5133;SDS011;2585;48.696;10.066;2023-02-15T03:22:37;38.00;;;18.08;;
5133;SDS011;2585;48.696;10.066;2023-02-15T03:25:09;40.88;;;17.77;;
5133;SDS011;2585;48.696;10.066;2023-02-15T03:27:41;79.93;;;18.05;;
5133;SDS011;2585;48.696;10.066;2023-02-15T03:30:11;66.60;;;18.92;;
5133;SDS011;2585;48.696;10.066;2023-02-15T03:32:41;61.95;;;17.50;;
5133;SDS011;2585;48.696;10.066;2023-02-15T03:35:10;48.10;;;17.92;;
5133;SDS011;2585;48.696;10.066;2023-02-15T03:37:39;51.92;;;16.45;;
5133;SDS011;2585;48.696;10.066;2023-02-15T03:40:18;113.90;;;18.98;;
5133;SDS011;2585;48.696;10.066;2023-02-15T03:43:16;78.35;;;17.05;;
5133;SDS011;2585;48.696;10.066;2023-02-15T03:46:22;85.53;;;17.25;;
5133;SDS011;2585;48.696;10.066;2023-02-15T03:49:18;124.72;;;20.45;;
5133;SDS011;2585;48.696;10.066;2023-02-15T03:51:43;88.53;;;18.13;;
5133;SDS011;2585;48.696;10.066;2023-02-15T03:54:17;55.47;;;16.60;;
5133;SDS011;2585;48.696;10.066;2023-02-15T03:57:06;39.80;;;16.88;;
5133;SDS011;2585;48.696;10.066;2023-02-15T03:59:57;83.13;;;17.73;;
5133;SDS011;2585;48.696;10.066;2023-02-15T04:02:50;67.32;;;18.50;;
5133;SDS011;2585;48.696;10.066;2023-02-15T04:05:25;75.05;;;19.30;;
5133;SDS011;2585;48.696;10.066;2023-02-15T04:07:52;35.60;;;18.05;;
5133;SDS011;2585;48.696;10.066;2023-02-15T04:10:18;43.70;;;18.50;;
5133;SDS011;2585;48.696;10.066;2023-02-15T04:13:04;57.28;;;18.00;;
5133;SDS011;2585;48.696;10.066;2023-02-15T04:15:30;83.10;;;18.63;;
5133;SDS011;2585;48.696;10.066;2023-02-15T04:18:23;67.32;;;14.82;;
5133;SDS011;2585;48.696;10.066;2023-02-15T04:21:09;92.85;;;18.70;;
5133;SDS011;2585;48.696;10.066;2023-02-15T04:23:54;50.47;;;19.73;;
5133;SDS011;2585;48.696;10.066;2023-02-15T04:26:40;102.78;;;17.27;;
5133;SDS011;2585;48.696;10.066;2023-02-15T04:29:07;141.70;;;18.67;;
5133;SDS011;2585;48.696;10.066;2023-02-15T04:31:34;187.98;;;21.98;;
5133;SDS011;2585;48.696;10.066;2023-02-15T04:34:00;34.28;;;14.35;;
5133;SDS011;2585;48.696;10.066;2023-02-15T04:36:27;42.45;;;17.77;;
5133;SDS011;2585;48.696;10.066;2023-02-15T04:38:54;75.07;;;21.25;;
5133;SDS011;2585;48.696;10.066;2023-02-15T04:41:21;117.63;;;19.17;;
5133;SDS011;2585;48.696;10.066;2023-02-15T04:43:47;78.32;;;17.55;;
5133;SDS011;2585;48.696;10.066;2023-02-15T04:46:14;52.75;;;19.05;;
5133;SDS011;2585;48.696;10.066;2023-02-15T04:48:41;83.18;;;19.02;;
5133;SDS011;2585;48.696;10.066;2023-02-15T04:51:08;41.95;;;17.95;;
5133;SDS011;2585;48.696;10.066;2023-02-15T04:53:35;49.22;;;17.73;;
5133;SDS011;2585;48.696;10.066;2023-02-15T04:56:02;57.75;;;17.05;;
5133;SDS011;2585;48.696;10.066;2023-02-15T04:58:29;89.85;;;18.92;;
5133;SDS011;2585;48.696;10.066;2023-02-15T05:00:56;39.72;;;17.98;;
5133;SDS011;2585;48.696;10.066;2023-02-15T05:03:23;45.97;;;17.67;;
5133;SDS011;2585;48.696;10.066;2023-02-15T05:05:50;47.80;;;16.30;;
5133;SDS011;2585;48.696;10.066;2023-02-15T05:08:17;78.40;;;18.00;;
5133;SDS011;2585;48.696;10.066;2023-02-15T05:10:44;40.58;;;16.67;;
5133;SDS011;2585;48.696;10.066;2023-02-15T05:13:11;87.47;;;20.17;;
5133;SDS011;2585;48.696;10.066;2023-02-15T05:15:37;49.22;;;16.70;;
5133;SDS011;2585;48.696;10.066;2023-02-15T05:18:04;31.20;;;17.20;;
5133;SDS011;2585;48.696;10.066;2023-02-15T05:20:32;33.72;;;18.05;;
5133;SDS011;2585;48.696;10.066;2023-02-15T05:22:59;32.70;;;15.60;;
5133;SDS011;2585;48.696;10.066;2023-02-15T05:25:26;36.70;;;17.00;;
5133;SDS011;2585;48.696;10.066;2023-02-15T05:28:11;42.15;;;16.73;;
5133;SDS011;2585;48.696;10.066;2023-02-15T05:31:00;39.53;;;17.95;;
5133;SDS011;2585;48.696;10.066;2023-02-15T05:33:30;32.65;;;16.25;;
5133;SDS011;2585;48.696;10.066;2023-02-15T05:35:57;39.58;;;18.10;;
5133;SDS011;2585;48.696;10.066;2023-02-15T05:38:27;27.17;;;14.40;;
5133;SDS011;2585;48.696;10.066;2023-02-15T05:40:54;39.08;;;16.13;;
5133;SDS011;2585;48.696;10.066;2023-02-15T05:43:21;34.28;;;16.58;;
5133;SDS011;2585;48.696;10.066;2023-02-15T05:45:49;35.15;;;16.52;;
5133;SDS011;2585;48.696;10.066;2023-02-15T05:48:20;43.55;;;18.83;;
5133;SDS011;2585;48.696;10.066;2023-02-15T05:53:46;36.30;;;18.17;;
5133;SDS011;2585;48.696;10.066;2023-02-15T05:56:13;35.38;;;18.40;;
5133;SDS011;2585;48.696;10.066;2023-02-15T05:58:40;35.88;;;17.35;;
5133;SDS011;2585;48.696;10.066;2023-02-15T06:01:11;27.50;;;15.65;;
5133;SDS011;2585;48.696;10.066;2023-02-15T06:03:40;37.28;;;16.80;;
5133;SDS011;2585;48.696;10.066;2023-02-15T06:06:07;34.45;;;17.35;;
5133;SDS011;2585;48.696;10.066;2023-02-15T06:08:34;27.92;;;15.98;;
5133;SDS011;2585;48.696;10.066;2023-02-15T06:11:02;30.85;;;13.07;;
5133;SDS011;2585;48.696;10.066;2023-02-15T06:13:30;26.67;;;14.02;;
5133;SDS011;2585;48.696;10.066;2023-02-15T06:15:58;28.50;;;13.82;;
5133;SDS011;2585;48.696;10.066;2023-02-15T06:18:25;35.30;;;14.73;;
5133;SDS011;2585;48.696;10.066;2023-02-15T06:20:52;27.90;;;13.30;;
5133;SDS011;2585;48.696;10.066;2023-02-15T06:23:18;37.50;;;15.68;;
5133;SDS011;2585;48.696;10.066;2023-02-15T06:25:45;26.10;;;14.15;;
5133;SDS011;2585;48.696;10.066;2023-02-15T06:28:12;28.65;;;13.65;;
5133;SDS011;2585;48.696;10.066;2023-02-15T06:30:39;23.55;;;13.80;;
5133;SDS011;2585;48.696;10.066;2023-02-15T06:33:06;26.25;;;14.10;;
5133;SDS011;2585;48.696;10.066;2023-02-15T06:35:33;28.40;;;14.38;;
5133;SDS011;2585;48.696;10.066;2023-02-15T06:38:00;32.00;;;14.25;;
5133;SDS011;2585;48.696;10.066;2023-02-15T06:40:26;25.23;;;14.35;;
5133;SDS011;2585;48.696;10.066;2023-02-15T06:42:53;56.63;;;15.25;;
5133;SDS011;2585;48.696;10.066;2023-02-15T06:45:20;29.88;;;14.35;;
5133;SDS011;2585;48.696;10.066;2023-02-15T06:47:47;33.35;;;15.75;;
5133;SDS011;2585;48.696;10.066;2023-02-15T06:50:13;30.42;;;14.77;;
5133;SDS011;2585;48.696;10.066;2023-02-15T06:52:40;28.70;;;15.88;;
5133;SDS011;2585;48.696;10.066;2023-02-15T06:55:07;37.03;;;15.50;;
5133;SDS011;2585;48.696;10.066;2023-02-15T06:57:34;27.92;;;13.95;;
5133;SDS011;2585;48.696;10.066;2023-02-15T07:00:01;27.08;;;15.00;;
5133;SDS011;2585;48.696;10.066;2023-02-15T07:02:31;31.65;;;15.30;;
5133;SDS011;2585;48.696;10.066;2023-02-15T07:04:57;25.67;;;14.65;;
5133;SDS011;2585;48.696;10.066;2023-02-15T07:07:24;28.48;;;14.55;;
5133;SDS011;2585;48.696;10.066;2023-02-15T07:09:51;26.83;;;14.50;;
5133;SDS011;2585;48.696;10.066;2023-02-15T07:12:18;32.17;;;15.65;;
5133;SDS011;2585;48.696;10.066;2023-02-15T07:15:03;23.52;;;13.30;;
5133;SDS011;2585;48.696;10.066;2023-02-15T07:17:33;21.33;;;13.70;;
5133;SDS011;2585;48.696;10.066;2023-02-15T07:20:05;22.90;;;14.88;;
5133;SDS011;2585;48.696;10.066;2023-02-15T07:22:34;29.20;;;14.00;;
5133;SDS011;2585;48.696;10.066;2023-02-15T07:25:03;21.52;;;13.15;;
5133;SDS011;2585;48.696;10.066;2023-02-15T07:27:31;31.80;;;15.25;;
5133;SDS011;2585;48.696;10.066;2023-02-15T07:29:58;30.58;;;14.48;;
5133;SDS011;2585;48.696;10.066;2023-02-15T07:32:29;26.00;;;12.90;;
5133;SDS011;2585;48.696;10.066;2023-02-15T07:34:57;27.73;;;13.32;;
5133;SDS011;2585;48.696;10.066;2023-02-15T07:37:25;30.00;;;14.30;;
5133;SDS011;2585;48.696;10.066;2023-02-15T07:39:52;34.38;;;14.70;;
5133;SDS011;2585;48.696;10.066;2023-02-15T07:42:19;24.88;;;14.30;;
5133;SDS011;2585;48.696;10.066;2023-02-15T07:44:47;26.20;;;14.45;;
5133;SDS011;2585;48.696;10.066;2023-02-15T07:47:14;45.38;;;20.80;;
5133;SDS011;2585;48.696;10.066;2023-02-15T07:49:40;45.35;;;21.27;;
5133;SDS011;2585;48.696;10.066;2023-02-15T07:52:07;28.58;;;15.55;;
5133;SDS011;2585;48.696;10.066;2023-02-15T07:54:34;29.70;;;15.70;;
5133;SDS011;2585;48.696;10.066;2023-02-15T07:57:01;35.40;;;16.80;;
5133;SDS011;2585;48.696;10.066;2023-02-15T07:59:28;28.42;;;15.07;;
5133;SDS011;2585;48.696;10.066;2023-02-15T08:01:55;29.38;;;16.67;;
5133;SDS011;2585;48.696;10.066;2023-02-15T08:04:22;27.80;;;15.55;;
5133;SDS011;2585;48.696;10.066;2023-02-15T08:06:51;28.73;;;14.85;;
5133;SDS011;2585;48.696;10.066;2023-02-15T08:09:20;27.35;;;15.15;;
5133;SDS011;2585;48.696;10.066;2023-02-15T08:11:47;28.30;;;16.23;;
5133;SDS011;2585;48.696;10.066;2023-02-15T08:14:15;23.30;;;15.23;;
5133;SDS011;2585;48.696;10.066;2023-02-15T08:19:16;29.50;;;15.35;;
5133;SDS011;2585;48.696;10.066;2023-02-15T08:21:46;29.88;;;16.48;;
5133;SDS011;2585;48.696;10.066;2023-02-15T08:24:16;26.70;;;14.55;;
5133;SDS011;2585;48.696;10.066;2023-02-15T08:26:44;25.80;;;14.82;;
5133;SDS011;2585;48.696;10.066;2023-02-15T08:29:16;25.73;;;14.35;;
5133;SDS011;2585;48.696;10.066;2023-02-15T08:31:45;30.17;;;16.45;;
5133;SDS011;2585;48.696;10.066;2023-02-15T08:34:14;25.45;;;14.07;;
5133;SDS011;2585;48.696;10.066;2023-02-15T08:36:43;28.95;;;14.63;;
5133;SDS011;2585;48.696;10.066;2023-02-15T08:39:11;25.73;;;14.15;;
5133;SDS011;2585;48.696;10.066;2023-02-15T08:41:38;29.67;;;15.90;;
5133;SDS011;2585;48.696;10.066;2023-02-15T08:44:08;29.45;;;14.45;;
5133;SDS011;2585;48.696;10.066;2023-02-15T08:46:39;23.95;;;13.68;;
5133;SDS011;2585;48.696;10.066;2023-02-15T08:49:08;26.05;;;14.52;;
5133;SDS011;2585;48.696;10.066;2023-02-15T08:51:36;21.52;;;13.40;;
5133;SDS011;2585;48.696;10.066;2023-02-15T08:54:09;25.42;;;13.23;;
5133;SDS011;2585;48.696;10.066;2023-02-15T08:56:39;23.55;;;13.48;;
5133;SDS011;2585;48.696;10.066;2023-02-15T08:59:11;26.88;;;14.85;;
5133;SDS011;2585;48.696;10.066;2023-02-15T09:01:43;24.92;;;14.65;;
5133;SDS011;2585;48.696;10.066;2023-02-15T09:04:11;26.52;;;14.25;;
5133;SDS011;2585;48.696;10.066;2023-02-15T09:06:39;26.10;;;13.57;;
5133;SDS011;2585;48.696;10.066;2023-02-15T09:09:07;26.30;;;15.70;;
5133;SDS011;2585;48.696;10.066;2023-02-15T09:11:36;30.42;;;14.80;;
5133;SDS011;2585;48.696;10.066;2023-02-15T09:14:06;21.88;;;13.55;;
5133;SDS011;2585;48.696;10.066;2023-02-15T09:16:36;25.40;;;14.32;;
5133;SDS011;2585;48.696;10.066;2023-02-15T09:19:04;23.75;;;14.35;;
5133;SDS011;2585;48.696;10.066;2023-02-15T09:21:33;23.48;;;14.02;;
5133;SDS011;2585;48.696;10.066;2023-02-15T09:24:02;21.95;;;13.52;;
5133;SDS011;2585;48.696;10.066;2023-02-15T09:26:31;22.63;;;14.32;;
5133;SDS011;2585;48.696;10.066;2023-02-15T09:29:00;26.35;;;13.95;;
5133;SDS011;2585;48.696;10.066;2023-02-15T09:31:30;21.30;;;13.30;;
5133;SDS011;2585;48.696;10.066;2023-02-15T09:34:00;21.58;;;13.45;;
5133;SDS011;2585;48.696;10.066;2023-02-15T09:36:32;25.83;;;14.25;;
5133;SDS011;2585;48.696;10.066;2023-02-15T09:41:57;19.90;;;12.90;;
5133;SDS011;2585;48.696;10.066;2023-02-15T09:50:40;23.60;;;14.73;;
5133;SDS011;2585;48.696;10.066;2023-02-15T09:56:11;22.95;;;13.32;;
5133;SDS011;2585;48.696;10.066;2023-02-15T10:07:20;25.23;;;13.63;;
5133;SDS011;2585;48.696;10.066;2023-02-15T10:10:21;20.58;;;12.68;;
5133;SDS011;2585;48.696;10.066;2023-02-15T10:13:24;24.90;;;15.68;;
5133;SDS011;2585;48.696;10.066;2023-02-15T10:21:35;23.30;;;13.90;;
5133;SDS011;2585;48.696;10.066;2023-02-15T10:27:20;25.73;;;14.25;;
5133;SDS011;2585;48.696;10.066;2023-02-15T10:32:27;26.40;;;14.65;;
5133;SDS011;2585;48.696;10.066;2023-02-15T10:35:00;23.35;;;15.07;;
5133;SDS011;2585;48.696;10.066;2023-02-15T10:38:00;21.30;;;12.90;;
5133;SDS011;2585;48.696;10.066;2023-02-15T10:40:40;23.63;;;14.68;;
5133;SDS011;2585;48.696;10.066;2023-02-15T10:43:54;21.15;;;13.60;;
5133;SDS011;2585;48.696;10.066;2023-02-15T10:46:55;20.88;;;13.60;;
5133;SDS011;2585;48.696;10.066;2023-02-15T10:49:26;20.13;;;13.55;;
5133;SDS011;2585;48.696;10.066;2023-02-15T11:00:34;25.25;;;13.95;;
5133;SDS011;2585;48.696;10.066;2023-02-15T11:03:17;27.33;;;13.98;;
5133;SDS011;2585;48.696;10.066;2023-02-15T11:08:48;20.63;;;13.60;;
5133;SDS011;2585;48.696;10.066;2023-02-15T11:11:22;20.48;;;13.13;;
5133;SDS011;2585;48.696;10.066;2023-02-15T11:13:54;18.92;;;12.02;;
5133;SDS011;2585;48.696;10.066;2023-02-15T11:16:33;18.98;;;12.35;;
5133;SDS011;2585;48.696;10.066;2023-02-15T11:19:05;24.42;;;13.50;;
5133;SDS011;2585;48.696;10.066;2023-02-15T11:22:02;27.17;;;13.55;;
5133;SDS011;2585;48.696;10.066;2023-02-15T11:24:33;24.13;;;14.13;;
5133;SDS011;2585;48.696;10.066;2023-02-15T11:32:37;19.05;;;12.13;;
5133;SDS011;2585;48.696;10.066;2023-02-15T11:40:21;19.53;;;12.70;;
5133;SDS011;2585;48.696;10.066;2023-02-15T11:42:49;16.43;;;11.20;;
5133;SDS011;2585;48.696;10.066;2023-02-15T11:45:29;19.20;;;12.30;;
5133;SDS011;2585;48.696;10.066;2023-02-15T11:47:58;17.20;;;11.57;;
5133;SDS011;2585;48.696;10.066;2023-02-15T11:50:30;19.83;;;12.53;;
5133;SDS011;2585;48.696;10.066;2023-02-15T11:53:02;18.03;;;11.33;;
5133;SDS011;2585;48.696;10.066;2023-02-15T11:55:32;18.47;;;11.30;;
5133;SDS011;2585;48.696;10.066;2023-02-15T11:58:04;19.77;;;13.23;;
5133;SDS011;2585;48.696;10.066;2023-02-15T12:00:40;16.93;;;12.30;;
5133;SDS011;2585;48.696;10.066;2023-02-15T12:03:16;18.50;;;11.43;;
5133;SDS011;2585;48.696;10.066;2023-02-15T12:05:49;14.23;;;10.83;;
5133;SDS011;2585;48.696;10.066;2023-02-15T12:08:23;16.60;;;10.13;;
5133;SDS011;2585;48.696;10.066;2023-02-15T12:11:06;17.00;;;10.67;;
5133;SDS011;2585;48.696;10.066;2023-02-15T12:13:33;16.00;;;10.93;;
5133;SDS011;2585;48.696;10.066;2023-02-15T12:16:04;14.80;;;10.60;;
5133;SDS011;2585;48.696;10.066;2023-02-15T12:18:37;13.40;;;9.37;;
5133;SDS011;2585;48.696;10.066;2023-02-15T12:21:07;14.77;;;10.53;;
5133;SDS011;2585;48.696;10.066;2023-02-15T12:23:42;17.20;;;10.90;;
5133;SDS011;2585;48.696;10.066;2023-02-15T12:26:14;14.87;;;10.70;;
5133;SDS011;2585;48.696;10.066;2023-02-15T12:28:49;14.43;;;10.97;;
5133;SDS011;2585;48.696;10.066;2023-02-15T12:33:59;14.90;;;10.27;;
5133;SDS011;2585;48.696;10.066;2023-02-15T12:36:44;13.93;;;11.70;;
5133;SDS011;2585;48.696;10.066;2023-02-15T12:39:21;11.50;;;9.83;;
5133;SDS011;2585;48.696;10.066;2023-02-15T12:44:24;15.57;;;11.43;;
5133;SDS011;2585;48.696;10.066;2023-02-15T12:49:35;14.20;;;10.10;;
5133;SDS011;2585;48.696;10.066;2023-02-15T12:54:46;15.30;;;10.83;;
5133;SDS011;2585;48.696;10.066;2023-02-15T13:03:14;13.87;;;10.80;;
5133;SDS011;2585;48.696;10.066;2023-02-15T13:07:54;18.13;;;11.90;;
5133;SDS011;2585;48.696;10.066;2023-02-15T13:12:56;16.10;;;11.27;;
5133;SDS011;2585;48.696;10.066;2023-02-15T13:15:31;16.43;;;10.87;;
5133;SDS011;2585;48.696;10.066;2023-02-15T13:18:04;16.33;;;11.80;;
5133;SDS011;2585;48.696;10.066;2023-02-15T13:20:36;15.03;;;11.13;;
5133;SDS011;2585;48.696;10.066;2023-02-15T13:23:10;15.30;;;12.07;;
5133;SDS011;2585;48.696;10.066;2023-02-15T13:25:58;15.33;;;10.80;;
5133;SDS011;2585;48.696;10.066;2023-02-15T13:28:36;16.30;;;11.33;;
5133;SDS011;2585;48.696;10.066;2023-02-15T13:31:26;17.00;;;11.17;;
5133;SDS011;2585;48.696;10.066;2023-02-15T13:34:18;17.93;;;11.97;;
5133;SDS011;2585;48.696;10.066;2023-02-15T13:37:02;19.10;;;11.67;;
5133;SDS011;2585;48.696;10.066;2023-02-15T13:39:59;15.07;;;11.20;;
5133;SDS011;2585;48.696;10.066;2023-02-15T13:42:47;15.63;;;11.63;;
5133;SDS011;2585;48.696;10.066;2023-02-15T13:59:28;22.27;;;12.80;;
5133;SDS011;2585;48.696;10.066;2023-02-15T14:07:55;18.80;;;12.43;;
5133;SDS011;2585;48.696;10.066;2023-02-15T14:10:44;19.67;;;12.20;;
5133;SDS011;2585;48.696;10.066;2023-02-15T14:13:28;16.83;;;11.93;;
5133;SDS011;2585;48.696;10.066;2023-02-15T14:16:20;18.27;;;12.50;;
5133;SDS011;2585;48.696;10.066;2023-02-15T14:18:57;16.80;;;12.43;;
5133;SDS011;2585;48.696;10.066;2023-02-15T14:21:38;20.63;;;13.13;;
5133;SDS011;2585;48.696;10.066;2023-02-15T14:24:38;20.13;;;12.90;;
5133;SDS011;2585;48.696;10.066;2023-02-15T14:27:36;18.87;;;13.50;;
5133;SDS011;2585;48.696;10.066;2023-02-15T14:30:29;21.33;;;14.00;;
5133;SDS011;2585;48.696;10.066;2023-02-15T14:33:26;21.93;;;13.13;;
5133;SDS011;2585;48.696;10.066;2023-02-15T14:36:10;20.63;;;12.57;;
5133;SDS011;2585;48.696;10.066;2023-02-15T14:41:22;23.00;;;16.17;;
5133;SDS011;2585;48.696;10.066;2023-02-15T14:46:46;31.03;;;17.27;;
5133;SDS011;2585;48.696;10.066;2023-02-15T14:49:25;25.00;;;17.03;;
5133;SDS011;2585;48.696;10.066;2023-02-15T14:51:57;26.90;;;18.07;;
5133;SDS011;2585;48.696;10.066;2023-02-15T14:59:42;28.47;;;18.40;;
5133;SDS011;2585;48.696;10.066;2023-02-15T15:02:13;32.87;;;17.93;;
5133;SDS011;2585;48.696;10.066;2023-02-15T15:05:07;33.63;;;19.10;;
5133;SDS011;2585;48.696;10.066;2023-02-15T15:12:47;28.50;;;17.97;;
5133;SDS011;2585;48.696;10.066;2023-02-15T15:33:51;42.03;;;20.00;;
5133;SDS011;2585;48.696;10.066;2023-02-15T15:42:13;33.40;;;19.80;;
5133;SDS011;2585;48.696;10.066;2023-02-15T15:47:47;32.53;;;20.93;;
5133;SDS011;2585;48.696;10.066;2023-02-15T15:50:32;42.30;;;22.53;;
5133;SDS011;2585;48.696;10.066;2023-02-15T15:53:00;38.73;;;20.10;;
5133;SDS011;2585;48.696;10.066;2023-02-15T15:55:30;31.30;;;19.27;;
5133;SDS011;2585;48.696;10.066;2023-02-15T15:58:01;38.50;;;21.83;;
5133;SDS011;2585;48.696;10.066;2023-02-15T16:05:48;48.57;;;27.60;;
5133;SDS011;2585;48.696;10.066;2023-02-15T16:08:31;54.70;;;30.53;;
5133;SDS011;2585;48.696;10.066;2023-02-15T16:11:00;64.07;;;35.80;;
5133;SDS011;2585;48.696;10.066;2023-02-15T16:13:36;54.63;;;27.07;;
5133;SDS011;2585;48.696;10.066;2023-02-15T16:16:11;39.03;;;22.93;;
5133;SDS011;2585;48.696;10.066;2023-02-15T16:18:39;37.80;;;21.10;;
5133;SDS011;2585;48.696;10.066;2023-02-15T16:21:12;40.10;;;22.20;;
5133;SDS011;2585;48.696;10.066;2023-02-15T16:24:08;34.27;;;19.97;;
5133;SDS011;2585;48.696;10.066;2023-02-15T16:27:11;39.00;;;21.53;;
5133;SDS011;2585;48.696;10.066;2023-02-15T16:29:31;38.07;;;20.07;;
5133;SDS011;2585;48.696;10.066;2023-02-15T16:34:30;37.17;;;20.30;;
5133;SDS011;2585;48.696;10.066;2023-02-15T16:37:17;34.00;;;19.47;;
5133;SDS011;2585;48.696;10.066;2023-02-15T16:39:48;31.03;;;18.93;;
5133;SDS011;2585;48.696;10.066;2023-02-15T16:42:15;27.67;;;16.30;;
5133;SDS011;2585;48.696;10.066;2023-02-15T16:44:45;24.87;;;15.27;;
5133;SDS011;2585;48.696;10.066;2023-02-15T16:47:16;26.50;;;16.00;;
5133;SDS011;2585;48.696;10.066;2023-02-15T16:49:55;27.03;;;16.30;;
5133;SDS011;2585;48.696;10.066;2023-02-15T16:52:28;25.33;;;15.37;;
5133;SDS011;2585;48.696;10.066;2023-02-15T16:54:59;24.73;;;16.23;;
5133;SDS011;2585;48.696;10.066;2023-02-15T16:57:31;26.60;;;16.20;;
5133;SDS011;2585;48.696;10.066;2023-02-15T17:00:03;27.43;;;17.23;;
5133;SDS011;2585;48.696;10.066;2023-02-15T17:02:34;30.47;;;17.63;;
5133;SDS011;2585;48.696;10.066;2023-02-15T17:05:21;29.73;;;17.87;;
5133;SDS011;2585;48.696;10.066;2023-02-15T17:10:44;30.20;;;17.90;;
5133;SDS011;2585;48.696;10.066;2023-02-15T17:13:28;33.33;;;16.93;;
5133;SDS011;2585;48.696;10.066;2023-02-15T17:18:29;31.30;;;17.88;;
5133;SDS011;2585;48.696;10.066;2023-02-15T17:20:59;29.23;;;18.03;;
5133;SDS011;2585;48.696;10.066;2023-02-15T17:23:35;30.73;;;18.60;;
5133;SDS011;2585;48.696;10.066;2023-02-15T17:26:14;34.50;;;19.40;;
5133;SDS011;2585;48.696;10.066;2023-02-15T17:28:46;38.07;;;19.80;;
5133;SDS011;2585;48.696;10.066;2023-02-15T17:31:17;32.20;;;18.57;;
5133;SDS011;2585;48.696;10.066;2023-02-15T17:33:46;33.30;;;18.90;;
5133;SDS011;2585;48.696;10.066;2023-02-15T17:36:20;35.70;;;19.77;;
5133;SDS011;2585;48.696;10.066;2023-02-15T17:41:25;31.45;;;18.75;;
5133;SDS011;2585;48.696;10.066;2023-02-15T17:43:53;31.08;;;17.40;;
5133;SDS011;2585;48.696;10.066;2023-02-15T17:46:20;31.17;;;18.20;;
5133;SDS011;2585;48.696;10.066;2023-02-15T17:48:48;38.42;;;19.88;;
5133;SDS011;2585;48.696;10.066;2023-02-15T17:51:17;36.40;;;19.38;;
5133;SDS011;2585;48.696;10.066;2023-02-15T17:53:46;34.85;;;17.42;;
5133;SDS011;2585;48.696;10.066;2023-02-15T17:56:32;36.22;;;18.40;;
5133;SDS011;2585;48.696;10.066;2023-02-15T17:58:59;36.95;;;19.48;;
5133;SDS011;2585;48.696;10.066;2023-02-15T18:01:26;47.72;;;23.08;;
5133;SDS011;2585;48.696;10.066;2023-02-15T18:04:11;37.28;;;21.48;;
5133;SDS011;2585;48.696;10.066;2023-02-15T18:06:58;35.60;;;20.45;;
5133;SDS011;2585;48.696;10.066;2023-02-15T18:09:44;38.80;;;21.52;;
5133;SDS011;2585;48.696;10.066;2023-02-15T18:12:30;37.97;;;19.48;;